Time;durP1;ratioP1;P1;durP2;ratioP2;P2;SDS_P1;SDS_P2;PMS_P1;PMS_P2;Temp;Humidity;BMP_temperature;BMP_pressure;BME280_temperature;BME280_humidity;BME280_pressure;Samples;Min_cycle;Max_cycle;Signal;HPM_P1;HPM_P2
2023/10/26 00:01:24;;;;;;;;;;;;;;;;;;5014981;28;19990;-75
2023/10/26 00:03:50;;;;;;;;;;;;;;;;;;5015011;28;20012;-74
2023/10/26 00:06:16;;;;;;;;;;;;;;;;;;5014858;28;19991;-75
2023/10/26 00:08:42;;;;;;;;;;;;;;;;;;5014736;28;19994;-74
2023/10/26 00:11:08;;;;;;;;;;;;;;;;;;5014501;28;20025;-75
2023/10/26 00:13:34;;;;;;;;;;;;;;;;;;5014872;28;19996;-73
2023/10/26 00:16:00;;;;;;;;;;;;;;;;;;5014460;28;19998;-73
2023/10/26 00:18:26;;;;;;;;;;;;;;;;;;5014536;28;20069;-75
2023/10/26 00:20:52;;;;;;;;;;;;;;;;;;5014323;28;20033;-74
2023/10/26 00:23:18;;;;;;;;;;;;;;;;;;5014621;28;20037;-75
2023/10/26 00:25:44;;;;;;;;;;;;;;;;;;5013472;28;20030;-74
2023/10/26 00:28:10;;;;;;;;;;;;;;;;;;5014362;28;19994;-73
2023/10/26 00:30:36;;;;;;;;;;;;;;;;;;5014295;28;19986;-75
2023/10/26 00:33:02;;;;;;;;;;;;;;;;;;5014053;28;20030;-75
2023/10/26 00:35:28;;;;;;;;;;;;;;;;;;5014316;28;20413;-76
2023/10/26 00:37:54;;;;;;;;;;;;;;;;;;5014223;28;19994;-74
2023/10/26 00:40:20;;;;;;;;;;;;;;;;;;5014254;28;19990;-74
2023/10/26 00:42:46;;;;;;;;;;;;;;;;;;5013526;28;19998;-73
2023/10/26 00:45:12;;;;;;;;;;;;;;;;;;5014242;28;20434;-75
2023/10/26 00:47:38;;;;;;;;;;;;;;;;;;5014047;28;19993;-74
2023/10/26 00:50:04;;;;;;;;;;;;;;;;;;5013849;28;19987;-75
2023/10/26 00:52:30;;;;;;;;;;;;;;;;;;5014187;28;19995;-74
2023/10/26 00:54:56;;;;;;;;;;;;;;;;;;5013633;28;20410;-74
2023/10/26 00:57:22;;;;;;;;;;;;;;;;;;5014087;28;19990;-74
2023/10/26 00:59:48;;;;;;;;;;;;;;;;;;5013078;28;19994;-74
2023/10/26 01:02:14;;;;;;;;;;;;;;;;;;5013934;28;19987;-74
2023/10/26 01:04:40;;;;;;;;;;;;;;;;;;5013541;28;19990;-75
2023/10/26 01:07:06;;;;;;;;;;;;;;;;;;4995975;28;20085;-74
2023/10/26 01:09:32;;;;;;;;;;;;;;;;;;5013517;28;20081;-74
2023/10/26 01:11:58;;;;;;;;;;;;;;;;;;5013407;28;20049;-76
2023/10/26 01:14:24;;;;;;;;;;;;;;;;;;5013397;28;20069;-75
2023/10/26 01:16:50;;;;;;;;;;;;;;;;;;5012742;28;20098;-74
2023/10/26 01:19:15;;;;;;;;;;;;;;;;;;5013425;28;19986;-73
2023/10/26 01:21:41;;;;;;;;;;;;;;;;;;5013498;28;19994;-75
2023/10/26 01:24:08;;;;;;;;;;;;;;;;;;5013233;28;19993;-73
2023/10/26 01:26:34;;;;;;;;;;;;;;;;;;5013494;28;19990;-73
2023/10/26 01:28:59;;;;;;;;;;;;;;;;;;5013450;28;20081;-75
2023/10/26 01:31:25;;;;;;;;;;;;;;;;;;4994856;28;19994;-74
2023/10/26 01:33:51;;;;;;;;;;;;;;;;;;5012767;28;20057;-75
2023/10/26 01:36:17;;;;;;;;;;;;;;;;;;5013153;28;20020;-74
2023/10/26 01:38:43;;;;;;;;;;;;;;;;;;5013055;28;19991;-73
2023/10/26 01:41:09;;;;;;;;;;;;;;;;;;4995413;28;19990;-75
2023/10/26 01:43:35;;;;;;;;;;;;;;;;;;5013138;28;19997;-74
2023/10/26 01:46:01;;;;;;;;;;;;;;;;;;5012084;28;19994;-75
2023/10/26 01:48:27;;;;;;;;;;;;;;;;;;5012576;28;19990;-75
2023/10/26 01:50:53;;;;;;;;;;;;;;;;;;5012882;28;20053;-74
2023/10/26 01:53:23;;;;;;;;;;;;;;;;;;5012767;28;19990;-74
2023/10/26 01:55:49;;;;;;;;;;;;;;;;;;5012509;28;20018;-74
2023/10/26 01:58:15;;;;;;;;;;;;;;;;;;5012696;28;19996;-76
2023/10/26 02:00:41;;;;;;;;;;;;;;;;;;5012378;28;20001;-74
2023/10/26 02:03:07;;;;;;;;;;;;;;;;;;5011893;28;19994;-74
2023/10/26 02:05:33;;;;;;;;;;;;;;;;;;5012490;28;19992;-74
2023/10/26 02:07:59;;;;;;;;;;;;;;;;;;5012333;28;19991;-74
2023/10/26 02:10:29;;;;;;;;;;;;;;;;;;5012613;28;20361;-75
2023/10/26 02:12:55;;;;;;;;;;;;;;;;;;5012245;28;19994;-73
2023/10/26 02:15:21;;;;;;;;;;;;;;;;;;5012269;28;20025;-74
2023/10/26 02:17:47;;;;;;;;;;;;;;;;;;5012679;28;19990;-75
2023/10/26 02:20:13;;;;;;;;;;;;;;;;;;5011166;28;20017;-73
2023/10/26 02:22:39;;;;;;;;;;;;;;;;;;5011635;28;19986;-74
2023/10/26 02:25:05;;;;;;;;;;;;;;;;;;5012330;28;20036;-75
2023/10/26 02:27:31;;;;;;;;;;;;;;;;;;5012014;28;19994;-74
2023/10/26 02:29:57;;;;;;;;;;;;;;;;;;5012067;28;19996;-74
2023/10/26 02:32:23;;;;;;;;;;;;;;;;;;5011803;28;20025;-74
2023/10/26 02:34:49;;;;;;;;;;;;;;;;;;5012108;28;20014;-74
2023/10/26 02:37:15;;;;;;;;;;;;;;;;;;5010980;28;20045;-74
2023/10/26 02:39:41;;;;;;;;;;;;;;;;;;5012178;28;19995;-75
2023/10/26 02:42:08;;;;;;;;;;;;;;;;;;5012297;28;20398;-74
2023/10/26 02:44:34;;;;;;;;;;;;;;;;;;5011984;28;20033;-75
2023/10/26 02:47:00;;;;;;;;;;;;;;;;;;5012073;28;20001;-75
2023/10/26 02:49:26;;;;;;;;;;;;;;;;;;5012051;28;19990;-75
2023/10/26 02:51:52;;;;;;;;;;;;;;;;;;5011986;28;19990;-75
2023/10/26 02:54:18;;;;;;;;;;;;;;;;;;5010980;28;20010;-75
2023/10/26 02:56:44;;;;;;;;;;;;;;;;;;5012303;28;19991;-74
2023/10/26 02:59:10;;;;;;;;;;;;;;;;;;5011743;28;20033;-75
2023/10/26 03:01:36;;;;;;;;;;;;;;;;;;5012693;28;20411;-75
2023/10/26 03:04:02;;;;;;;;;;;;;;;;;;5012045;28;20001;-75
2023/10/26 03:06:28;;;;;;;;;;;;;;;;;;5011752;28;19990;-73
2023/10/26 03:08:54;;;;;;;;;;;;;;;;;;5011591;28;20076;-72
2023/10/26 03:11:20;;;;;;;;;;;;;;;;;;5010905;28;19994;-73
2023/10/26 03:13:46;;;;;;;;;;;;;;;;;;5011386;28;20093;-72
2023/10/26 03:16:12;;;;;;;;;;;;;;;;;;5011496;28;19987;-71
2023/10/26 03:18:38;;;;;;;;;;;;;;;;;;5011546;28;20033;-71
2023/10/26 03:21:03;;;;;;;;;;;;;;;;;;5011395;28;19986;-72
2023/10/26 03:23:29;;;;;;;;;;;;;;;;;;5011750;28;19990;-73
2023/10/26 03:25:55;;;;;;;;;;;;;;;;;;5011263;28;19990;-71
2023/10/26 03:28:21;;;;;;;;;;;;;;;;;;5010540;28;20041;-71
2023/10/26 03:30:47;;;;;;;;;;;;;;;;;;5011524;28;20036;-71
2023/10/26 03:33:13;;;;;;;;;;;;;;;;;;5012022;28;20065;-72
2023/10/26 03:35:39;;;;;;;;;;;;;;;;;;5015234;28;20040;-71
2023/10/26 03:38:05;;;;;;;;;;;;;;;;;;5015236;28;20446;-71
2023/10/26 03:40:31;;;;;;;;;;;;;;;;;;5015220;28;20004;-72
2023/10/26 03:42:57;;;;;;;;;;;;;;;;;;5014629;28;20062;-72
2023/10/26 03:45:26;;;;;;;;;;;;;;;;;;5015066;28;19990;-72
2023/10/26 03:47:52;;;;;;;;;;;;;;;;;;4997492;28;19990;-72
2023/10/26 03:50:18;;;;;;;;;;;;;;;;;;5015062;28;19998;-72
2023/10/26 03:52:44;;;;;;;;;;;;;;;;;;5014988;28;20037;-72
2023/10/26 03:55:10;;;;;;;;;;;;;;;;;;4997119;28;20061;-73
2023/10/26 03:57:36;;;;;;;;;;;;;;;;;;5014889;28;20414;-72
2023/10/26 04:00:03;;;;;;;;;;;;;;;;;;5014057;28;20068;-72
2023/10/26 04:02:29;;;;;;;;;;;;;;;;;;5014710;28;20500;-73
2023/10/26 04:04:55;;;;;;;;;;;;;;;;;;5014953;28;20032;-73
2023/10/26 04:07:21;;;;;;;;;;;;;;;;;;5014843;28;19994;-72
2023/10/26 04:09:47;;;;;;;;;;;;;;;;;;5014696;28;19993;-72
2023/10/26 04:12:13;;;;;;;;;;;;;;;;;;5014631;28;20568;-72
2023/10/26 04:14:39;;;;;;;;;;;;;;;;;;5014799;28;20029;-73
2023/10/26 04:17:05;;;;;;;;;;;;;;;;;;5014060;28;19990;-72
2023/10/26 04:19:33;;;;;;;;;;;;;;;;;;5014706;28;19995;-72
2023/10/26 04:21:59;;;;;;;;;;;;;;;;;;5014514;28;19986;-73
2023/10/26 04:24:25;;;;;;;;;;;;;;;;;;5014401;28;19997;-73
2023/10/26 04:26:51;;;;;;;;;;;;;;;;;;5014452;28;19989;-73
2023/10/26 04:29:18;;;;;;;;;;;;;;;;;;5014744;28;20439;-73
2023/10/26 04:31:44;;;;;;;;;;;;;;;;;;5013636;28;19994;-73
2023/10/26 04:34:10;;;;;;;;;;;;;;;;;;5014311;28;20026;-72
2023/10/26 04:36:36;;;;;;;;;;;;;;;;;;5014529;28;19997;-73
2023/10/26 04:39:03;;;;;;;;;;;;;;;;;;5014274;28;20389;-75
2023/10/26 04:41:29;;;;;;;;;;;;;;;;;;5014345;28;20000;-73
2023/10/26 04:43:55;;;;;;;;;;;;;;;;;;4996509;28;19991;-72
2023/10/26 04:46:21;;;;;;;;;;;;;;;;;;5013172;28;19997;-73
2023/10/26 04:48:47;;;;;;;;;;;;;;;;;;5013289;28;19994;-73
2023/10/26 04:51:13;;;;;;;;;;;;;;;;;;5014021;28;20044;-72
2023/10/26 04:53:39;;;;;;;;;;;;;;;;;;5013770;28;20414;-73
2023/10/26 04:56:05;;;;;;;;;;;;;;;;;;5013972;28;20025;-72
2023/10/26 04:58:31;;;;;;;;;;;;;;;;;;5013907;28;19995;-74
2023/10/26 05:00:59;;;;;;;;;;;;;;;;;;5003479;28;20094;-72
2023/10/26 05:03:25;;;;;;;;;;;;;;;;;;5001925;28;19994;-73
2023/10/26 05:05:52;;;;;;;;;;;;;;;;;;5013665;28;19997;-73
2023/10/26 05:08:18;;;;;;;;;;;;;;;;;;5013578;28;20081;-72
2023/10/26 05:10:44;;;;;;;;;;;;;;;;;;5013554;28;20082;-73
2023/10/26 05:13:10;;;;;;;;;;;;;;;;;;5013812;28;20037;-73
2023/10/26 05:15:36;;;;;;;;;;;;;;;;;;5013330;28;20118;-73
2023/10/26 05:18:03;;;;;;;;;;;;;;;;;;5013533;28;20101;-72
2023/10/26 05:20:30;;;;;;;;;;;;;;;;;;5012762;28;19995;-73
2023/10/26 05:22:56;;;;;;;;;;;;;;;;;;5013268;28;20029;-74
2023/10/26 05:25:22;;;;;;;;;;;;;;;;;;5013142;28;20029;-72
2023/10/26 05:27:48;;;;;;;;;;;;;;;;;;5013148;28;20033;-73
2023/10/26 05:30:14;;;;;;;;;;;;;;;;;;4995511;28;19991;-72
2023/10/26 05:32:40;;;;;;;;;;;;;;;;;;5012837;28;20442;-74
2023/10/26 05:35:06;;;;;;;;;;;;;;;;;;5012882;28;20020;-74
2023/10/26 05:37:32;;;;;;;;;;;;;;;;;;5011999;28;20029;-74
2023/10/26 05:39:58;;;;;;;;;;;;;;;;;;5013322;28;20013;-73
2023/10/26 05:42:23;;;;;;;;;;;;;;;;;;5013094;28;20146;-73
2023/10/26 05:44:49;;;;;;;;;;;;;;;;;;5013006;28;20005;-72
2023/10/26 05:47:15;;;;;;;;;;;;;;;;;;5013009;28;20044;-73
2023/10/26 05:49:41;;;;;;;;;;;;;;;;;;5012915;28;19994;-72
2023/10/26 05:52:07;;;;;;;;;;;;;;;;;;5012566;28;20013;-72
2023/10/26 05:54:33;;;;;;;;;;;;;;;;;;5011763;28;20482;-71
2023/10/26 05:57:00;;;;;;;;;;;;;;;;;;5011730;28;19990;-71
2023/10/26 05:59:26;;;;;;;;;;;;;;;;;;5012642;28;19994;-70
2023/10/26 06:01:52;;;;;;;;;;;;;;;;;;5012642;28;19994;-69
2023/10/26 06:04:18;;;;;;;;;;;;;;;;;;5012724;28;20473;-72
2023/10/26 06:06:44;;;;;;;;;;;;;;;;;;5009252;28;20022;-74
2023/10/26 06:09:10;;;;;;;;;;;;;;;;;;5012269;28;20021;-72
2023/10/26 06:11:37;;;;;;;;;;;;;;;;;;5011685;28;19994;-73
2023/10/26 06:14:03;;;;;;;;;;;;;;;;;;5012630;28;19994;-73
2023/10/26 06:16:29;;;;;;;;;;;;;;;;;;5012785;28;20508;-72
2023/10/26 06:18:55;;;;;;;;;;;;;;;;;;5012393;28;19990;-72
2023/10/26 06:21:21;;;;;;;;;;;;;;;;;;5012065;28;19999;-72
2023/10/26 06:23:47;;;;;;;;;;;;;;;;;;5012162;28;19991;-73
2023/10/26 06:26:13;;;;;;;;;;;;;;;;;;5011443;28;19994;-73
2023/10/26 06:28:39;;;;;;;;;;;;;;;;;;5010189;28;20037;-65
2023/10/26 06:31:05;;;;;;;;;;;;;;;;;;4997561;28;19989;-67
2023/10/26 06:33:31;;;;;;;;;;;;;;;;;;5011360;28;20022;-68
2023/10/26 06:35:59;;;;;;;;;;;;;;;;;;5011735;28;20014;-69
2023/10/26 06:38:26;;;;;;;;;;;;;;;;;;5004250;28;19995;-69
2023/10/26 06:40:52;;;;;;;;;;;;;;;;;;4992390;28;19999;-68
2023/10/26 06:43:18;;;;;;;;;;;;;;;;;;5000460;28;20001;-69
2023/10/26 06:45:44;;;;;;;;;;;;;;;;;;5011588;28;20080;-69
2023/10/26 06:48:11;;;;;;;;;;;;;;;;;;5011473;28;20076;-69
2023/10/26 06:50:37;;;;;;;;;;;;;;;;;;5010452;28;19995;-69
2023/10/26 06:53:03;;;;;;;;;;;;;;;;;;5011514;28;20001;-70
2023/10/26 06:55:29;;;;;;;;;;;;;;;;;;5009277;28;20131;-70
2023/10/26 06:57:55;;;;;;;;;;;;;;;;;;5011386;28;20002;-68
2023/10/26 07:00:21;;;;;;;;;;;;;;;;;;5010839;28;20044;-70
2023/10/26 07:02:47;;;;;;;;;;;;;;;;;;5011135;28;19993;-69
2023/10/26 07:05:13;;;;;;;;;;;;;;;;;;5011730;28;19990;-69
2023/10/26 07:07:39;;;;;;;;;;;;;;;;;;5011184;28;19994;-69
2023/10/26 07:10:05;;;;;;;;;;;;;;;;;;5011263;28;20001;-70
2023/10/26 07:12:30;;;;;;;;;;;;;;;;;;5009671;28;19997;-71
2023/10/26 07:14:56;;;;;;;;;;;;;;;;;;5011204;28;20014;-70
2023/10/26 07:17:23;;;;;;;;;;;;;;;;;;5011007;28;20037;-70
2023/10/26 07:19:49;;;;;;;;;;;;;;;;;;5010168;28;19995;-70
2023/10/26 07:22:15;;;;;;;;;;;;;;;;;;5011408;28;19986;-69
2023/10/26 07:24:41;;;;;;;;;;;;;;;;;;5011068;28;20017;-69
2023/10/26 07:27:07;;;;;;;;;;;;;;;;;;5010167;28;19991;-69
2023/10/26 07:29:33;;;;;;;;;;;;;;;;;;5011086;28;19994;-69
2023/10/26 07:31:59;;;;;;;;;;;;;;;;;;5011257;28;20112;-70
2023/10/26 07:34:25;;;;;;;;;;;;;;;;;;5010792;28;20145;-68
2023/10/26 07:36:51;;;;;;;;;;;;;;;;;;5011188;28;20502;-69
2023/10/26 07:39:17;;;;;;;;;;;;;;;;;;5010974;28;20001;-69
2023/10/26 07:41:43;;;;;;;;;;;;;;;;;;5011056;28;19990;-69
2023/10/26 07:44:09;;;;;;;;;;;;;;;;;;5010144;28;20001;-70
2023/10/26 07:46:35;;;;;;;;;;;;;;;;;;5011111;28;19997;-72
2023/10/26 07:49:01;;;;;;;;;;;;;;;;;;5008405;28;19990;-72
2023/10/26 07:51:27;;;;;;;;;;;;;;;;;;5009924;28;20030;-71
2023/10/26 07:53:53;;;;;;;;;;;;;;;;;;5010861;28;19991;-71
2023/10/26 07:56:19;;;;;;;;;;;;;;;;;;5007932;28;20075;-71
2023/10/26 07:58:45;;;;;;;;;;;;;;;;;;5008531;28;20051;-71
2023/10/26 08:01:11;;;;;;;;;;;;;;;;;;5011263;28;19993;-71
2023/10/26 08:03:36;;;;;;;;;;;;;;;;;;5011236;28;20047;-71
2023/10/26 08:06:02;;;;;;;;;;;;;;;;;;5008846;28;20139;-71
2023/10/26 08:08:28;;;;;;;;;;;;;;;;;;5005754;28;20060;-70
2023/10/26 08:10:54;;;;;;;;;;;;;;;;;;5010818;28;20073;-71
2023/10/26 08:13:20;;;;;;;;;;;;;;;;;;5009312;28;19998;-71
2023/10/26 08:15:46;;;;;;;;;;;;;;;;;;5004041;28;20092;-70
2023/10/26 08:18:13;;;;;;;;;;;;;;;;;;5010059;28;19998;-71
2023/10/26 08:20:38;;;;;;;;;;;;;;;;;;5011887;28;19990;-70
2023/10/26 08:23:04;;;;;;;;;;;;;;;;;;5014451;28;20021;-70
2023/10/26 08:25:30;;;;;;;;;;;;;;;;;;5014414;28;19986;-69
2023/10/26 08:27:58;;;;;;;;;;;;;;;;;;5013988;28;20030;-70
2023/10/26 08:30:24;;;;;;;;;;;;;;;;;;5013229;28;20001;-70
2023/10/26 08:32:53;;;;;;;;;;;;;;;;;;5013134;28;20014;-70
2023/10/26 08:35:19;;;;;;;;;;;;;;;;;;5014329;28;20072;-70
2023/10/26 08:37:45;;;;;;;;;;;;;;;;;;5017542;28;20025;-70
2023/10/26 08:40:11;;;;;;;;;;;;;;;;;;5033693;28;19997;-73
2023/10/26 08:42:37;;;;;;;;;;;;;;;;;;5016325;28;19994;-70
2023/10/26 08:45:03;;;;;;;;;;;;;;;;;;5013932;28;20037;-70
2023/10/26 08:47:29;;;;;;;;;;;;;;;;;;5014058;28;20000;-70
2023/10/26 08:49:55;;;;;;;;;;;;;;;;;;5017242;28;19990;-69
2023/10/26 08:52:22;;;;;;;;;;;;;;;;;;5033472;28;19993;-69
2023/10/26 08:54:48;;;;;;;;;;;;;;;;;;5033287;28;20021;-69
2023/10/26 08:57:14;;;;;;;;;;;;;;;;;;5033413;28;19990;-70
2023/10/26 08:59:42;;;;;;;;;;;;;;;;;;5032198;28;20004;-70
2023/10/26 09:02:08;;;;;;;;;;;;;;;;;;5012438;28;19998;-70
2023/10/26 09:04:34;;;;;;;;;;;;;;;;;;5013368;28;19994;-69
2023/10/26 09:07:00;;;;;;;;;;;;;;;;;;5013709;28;20363;-70
2023/10/26 09:09:26;;;;;;;;;;;;;;;;;;5012345;28;20013;-69
2023/10/26 09:11:52;;;;;;;;;;;;;;;;;;5013344;28;20049;-71
2023/10/26 09:14:18;;;;;;;;;;;;;;;;;;5013343;28;20131;-70
2023/10/26 09:16:45;;;;;;;;;;;;;;;;;;5013288;28;20092;-70
2023/10/26 09:19:11;;;;;;;;;;;;;;;;;;5010711;28;20002;-69
2023/10/26 09:21:37;;;;;;;;;;;;;;;;;;5012615;28;20076;-70
2023/10/26 09:24:03;;;;;;;;;;;;;;;;;;5013198;28;20459;-70
2023/10/26 09:26:29;;;;;;;;;;;;;;;;;;5012552;28;19998;-70
2023/10/26 09:28:55;;;;;;;;;;;;;;;;;;5013026;28;20438;-69
2023/10/26 09:31:21;;;;;;;;;;;;;;;;;;5011208;28;20021;-69
2023/10/26 09:33:47;;;;;;;;;;;;;;;;;;5027436;28;20022;-71
2023/10/26 09:36:13;;;;;;;;;;;;;;;;;;5032009;28;20014;-70
2023/10/26 09:38:39;;;;;;;;;;;;;;;;;;5032105;28;20084;-72
2023/10/26 09:41:05;;;;;;;;;;;;;;;;;;5032268;28;20089;-69
2023/10/26 09:43:30;;;;;;;;;;;;;;;;;;5032224;28;20098;-69
2023/10/26 09:45:56;;;;;;;;;;;;;;;;;;5032292;28;19993;-70
2023/10/26 09:48:22;;;;;;;;;;;;;;;;;;5031958;28;20001;-70
2023/10/26 09:50:48;;;;;;;;;;;;;;;;;;5032700;28;20443;-69
2023/10/26 09:53:14;;;;;;;;;;;;;;;;;;5032528;28;20017;-69
2023/10/26 09:55:40;;;;;;;;;;;;;;;;;;5032526;28;20382;-70
2023/10/26 09:58:06;;;;;;;;;;;;;;;;;;5032623;28;20536;-69
2023/10/26 10:00:33;;;;;;;;;;;;;;;;;;5032384;28;19994;-70
2023/10/26 10:02:59;;;;;;;;;;;;;;;;;;5032471;28;20008;-70
2023/10/26 10:05:25;;;;;;;;;;;;;;;;;;5032231;28;20446;-69
2023/10/26 10:07:50;;;;;;;;;;;;;;;;;;5032274;28;19993;-69
2023/10/26 10:10:16;;;;;;;;;;;;;;;;;;5031992;28;19990;-69
2023/10/26 10:12:42;;;;;;;;;;;;;;;;;;5032029;28;20457;-70
2023/10/26 10:15:09;;;;;;;;;;;;;;;;;;5032013;28;20492;-70
2023/10/26 10:17:35;;;;;;;;;;;;;;;;;;5032280;28;20004;-70
2023/10/26 10:20:01;;;;;;;;;;;;;;;;;;5032176;28;19990;-70
2023/10/26 10:22:27;;;;;;;;;;;;;;;;;;5032031;28;20466;-69
2023/10/26 10:24:53;;;;;;;;;;;;;;;;;;5031816;28;19986;-70
2023/10/26 10:27:19;;;;;;;;;;;;;;;;;;5032068;28;19989;-70
2023/10/26 10:29:45;;;;;;;;;;;;;;;;;;5031614;28;20001;-69
2023/10/26 10:32:11;;;;;;;;;;;;;;;;;;5031225;28;20001;-69
2023/10/26 10:34:37;;;;;;;;;;;;;;;;;;5031737;28;20009;-68
2023/10/26 10:37:03;;;;;;;;;;;;;;;;;;5031687;28;20528;-69
2023/10/26 10:39:28;;;;;;;;;;;;;;;;;;5031597;28;20013;-69
2023/10/26 10:41:54;;;;;;;;;;;;;;;;;;5031900;28;20089;-70
2023/10/26 10:44:20;;;;;;;;;;;;;;;;;;5031039;28;20041;-69
2023/10/26 10:46:46;;;;;;;;;;;;;;;;;;5031957;28;19996;-69
2023/10/26 10:49:12;;;;;;;;;;;;;;;;;;5031634;28;20001;-69
2023/10/26 10:51:38;;;;;;;;;;;;;;;;;;5031542;28;20512;-70
2023/10/26 10:54:04;;;;;;;;;;;;;;;;;;5031343;28;19989;-69
2023/10/26 10:56:30;;;;;;;;;;;;;;;;;;5031492;28;20477;-69
2023/10/26 10:58:56;;;;;;;;;;;;;;;;;;5031461;28;19992;-71
2023/10/26 11:01:22;;;;;;;;;;;;;;;;;;5030133;28;20417;-70
2023/10/26 11:03:48;;;;;;;;;;;;;;;;;;5031315;28;19990;-69
2023/10/26 11:06:14;;;;;;;;;;;;;;;;;;5031426;28;19986;-70
2023/10/26 11:08:40;;;;;;;;;;;;;;;;;;5031177;28;19986;-68
2023/10/26 11:11:06;;;;;;;;;;;;;;;;;;5031279;28;20033;-69
2023/10/26 11:13:31;;;;;;;;;;;;;;;;;;5031695;28;20025;-69
2023/10/26 11:15:57;;;;;;;;;;;;;;;;;;5031174;28;20478;-69
2023/10/26 11:18:23;;;;;;;;;;;;;;;;;;5031405;28;19990;-69
2023/10/26 11:20:49;;;;;;;;;;;;;;;;;;5031162;28;19994;-72
2023/10/26 11:23:16;;;;;;;;;;;;;;;;;;5031281;28;19986;-70
2023/10/26 11:25:44;;;;;;;;;;;;;;;;;;5031056;28;20001;-70
2023/10/26 11:28:10;;;;;;;;;;;;;;;;;;5031054;28;19993;-69
2023/10/26 11:30:36;;;;;;;;;;;;;;;;;;5031012;28;20092;-69
2023/10/26 11:33:02;;;;;;;;;;;;;;;;;;5030628;28;20026;-70
2023/10/26 11:35:27;;;;;;;;;;;;;;;;;;5031056;28;20021;-70
2023/10/26 11:37:53;;;;;;;;;;;;;;;;;;5030899;28;20454;-70
2023/10/26 11:40:19;;;;;;;;;;;;;;;;;;5031439;28;20358;-68
2023/10/26 11:42:45;;;;;;;;;;;;;;;;;;5029764;28;20462;-69
2023/10/26 11:45:13;;;;;;;;;;;;;;;;;;5031501;28;19996;-69
2023/10/26 11:47:39;;;;;;;;;;;;;;;;;;5031197;28;19989;-70
2023/10/26 11:50:05;;;;;;;;;;;;;;;;;;5030934;28;19986;-70
2023/10/26 11:52:31;;;;;;;;;;;;;;;;;;5031072;28;19993;-70
2023/10/26 11:54:59;;;;;;;;;;;;;;;;;;5033085;28;20071;-69
2023/10/26 11:57:25;;;;;;;;;;;;;;;;;;5034787;28;20136;-70
2023/10/26 11:59:51;;;;;;;;;;;;;;;;;;5034834;28;19994;-69
2023/10/26 12:02:17;;;;;;;;;;;;;;;;;;5034418;28;20041;-69
2023/10/26 12:04:43;;;;;;;;;;;;;;;;;;5034665;28;20002;-69
2023/10/26 12:07:09;;;;;;;;;;;;;;;;;;5034618;28;20280;-70
2023/10/26 12:09:35;;;;;;;;;;;;;;;;;;5034671;28;20020;-70
2023/10/26 12:12:01;;;;;;;;;;;;;;;;;;5034250;28;19990;-70
2023/10/26 12:14:27;;;;;;;;;;;;;;;;;;5034444;28;20013;-69
2023/10/26 12:16:53;;;;;;;;;;;;;;;;;;5034513;28;19998;-68
2023/10/26 12:19:18;;;;;;;;;;;;;;;;;;5034540;28;19990;-70
2023/10/26 12:21:44;;;;;;;;;;;;;;;;;;5034282;28;20124;-68
2023/10/26 12:24:10;;;;;;;;;;;;;;;;;;5034187;28;20442;-70
2023/10/26 12:26:37;;;;;;;;;;;;;;;;;;5034317;28;19989;-70
2023/10/26 12:29:03;;;;;;;;;;;;;;;;;;5034186;28;20097;-69
2023/10/26 12:31:29;;;;;;;;;;;;;;;;;;5034229;28;19998;-69
2023/10/26 12:33:55;;;;;;;;;;;;;;;;;;5033054;28;20018;-71
2023/10/26 12:36:20;;;;;;;;;;;;;;;;;;5033704;28;20018;-69
2023/10/26 12:38:46;;;;;;;;;;;;;;;;;;5034145;28;19990;-72
2023/10/26 12:41:12;;;;;;;;;;;;;;;;;;5033684;28;20075;-70
2023/10/26 12:43:38;;;;;;;;;;;;;;;;;;5033792;28;19994;-70
2023/10/26 12:46:04;;;;;;;;;;;;;;;;;;5033846;28;19996;-71
2023/10/26 12:48:30;;;;;;;;;;;;;;;;;;5033616;28;19993;-70
2023/10/26 12:50:56;;;;;;;;;;;;;;;;;;5033784;28;19990;-70
2023/10/26 12:53:22;;;;;;;;;;;;;;;;;;5033919;28;19990;-69
2023/10/26 12:55:48;;;;;;;;;;;;;;;;;;5033710;28;20712;-70
2023/10/26 12:58:14;;;;;;;;;;;;;;;;;;5033455;28;20033;-70
2023/10/26 13:00:41;;;;;;;;;;;;;;;;;;5034074;28;19990;-70
2023/10/26 13:03:07;;;;;;;;;;;;;;;;;;5033482;28;19998;-69
2023/10/26 13:05:33;;;;;;;;;;;;;;;;;;5032918;28;20076;-70
2023/10/26 13:07:59;;;;;;;;;;;;;;;;;;5033536;28;20044;-70
2023/10/26 13:10:25;;;;;;;;;;;;;;;;;;5033376;28;20454;-70
2023/10/26 13:12:51;;;;;;;;;;;;;;;;;;5033338;28;20012;-70
2023/10/26 13:15:17;;;;;;;;;;;;;;;;;;5033196;28;20559;-70
2023/10/26 13:17:43;;;;;;;;;;;;;;;;;;5033234;28;20450;-70
2023/10/26 13:20:09;;;;;;;;;;;;;;;;;;5033266;28;20458;-71
2023/10/26 13:22:35;;;;;;;;;;;;;;;;;;5033224;28;20040;-73
2023/10/26 13:25:01;;;;;;;;;;;;;;;;;;5033120;28;19985;-74
2023/10/26 13:27:26;;;;;;;;;;;;;;;;;;5033140;28;19994;-74
2023/10/26 13:29:52;;;;;;;;;;;;;;;;;;5032856;28;20437;-74
2023/10/26 13:32:18;;;;;;;;;;;;;;;;;;5032300;28;20354;-73
2023/10/26 13:34:44;;;;;;;;;;;;;;;;;;5032585;28;20013;-73
2023/10/26 13:37:10;;;;;;;;;;;;;;;;;;5032936;28;19993;-72
2023/10/26 13:39:38;;;;;;;;;;;;;;;;;;5032925;28;20068;-72
2023/10/26 13:42:04;;;;;;;;;;;;;;;;;;5032504;28;20009;-71
2023/10/26 13:44:30;;;;;;;;;;;;;;;;;;5032682;28;20377;-71
2023/10/26 13:46:56;;;;;;;;;;;;;;;;;;5032519;28;19986;-70
2023/10/26 13:49:22;;;;;;;;;;;;;;;;;;5032842;28;20001;-71
2023/10/26 13:51:48;;;;;;;;;;;;;;;;;;5032486;28;19990;-69
2023/10/26 13:54:14;;;;;;;;;;;;;;;;;;5032507;28;20081;-70
2023/10/26 13:56:40;;;;;;;;;;;;;;;;;;5031134;28;19990;-70
2023/10/26 13:59:05;;;;;;;;;;;;;;;;;;5032379;28;19995;-69
2023/10/26 14:01:31;;;;;;;;;;;;;;;;;;5032413;28;19990;-69
2023/10/26 14:03:57;;;;;;;;;;;;;;;;;;5032294;28;19997;-71
2023/10/26 14:06:23;;;;;;;;;;;;;;;;;;5032467;28;20014;-70
2023/10/26 14:08:50;;;;;;;;;;;;;;;;;;5032344;28;20370;-70
2023/10/26 14:11:16;;;;;;;;;;;;;;;;;;5032311;28;20025;-71
2023/10/26 14:13:42;;;;;;;;;;;;;;;;;;5032165;28;20100;-70
2023/10/26 14:16:08;;;;;;;;;;;;;;;;;;5031959;28;20056;-70
2023/10/26 14:18:34;;;;;;;;;;;;;;;;;;5031393;28;20056;-69
2023/10/26 14:21:00;;;;;;;;;;;;;;;;;;5032113;28;20029;-69
2023/10/26 14:23:26;;;;;;;;;;;;;;;;;;5032183;28;19990;-70
2023/10/26 14:25:52;;;;;;;;;;;;;;;;;;5032028;28;19990;-71
2023/10/26 14:28:18;;;;;;;;;;;;;;;;;;5031806;28;20461;-69
2023/10/26 14:30:43;;;;;;;;;;;;;;;;;;5031801;28;20084;-69
2023/10/26 14:33:09;;;;;;;;;;;;;;;;;;5030875;28;20564;-70
2023/10/26 14:35:35;;;;;;;;;;;;;;;;;;5031750;28;20492;-70
2023/10/26 14:38:02;;;;;;;;;;;;;;;;;;5031636;28;19990;-70
2023/10/26 14:40:27;;;;;;;;;;;;;;;;;;5030490;28;19990;-69
2023/10/26 14:42:53;;;;;;;;;;;;;;;;;;5031572;28;20620;-69
2023/10/26 14:45:21;;;;;;;;;;;;;;;;;;5031566;28;20457;-70
2023/10/26 14:47:47;;;;;;;;;;;;;;;;;;5030277;28;19994;-70
2023/10/26 14:50:13;;;;;;;;;;;;;;;;;;5031683;28;20464;-71
2023/10/26 14:52:39;;;;;;;;;;;;;;;;;;5031367;28;19986;-70
2023/10/26 14:55:05;;;;;;;;;;;;;;;;;;5031211;28;20037;-70
2023/10/26 14:57:31;;;;;;;;;;;;;;;;;;5031397;28;20013;-72
2023/10/26 14:59:57;;;;;;;;;;;;;;;;;;5031285;28;20027;-72
2023/10/26 15:02:22;;;;;;;;;;;;;;;;;;5031654;28;20083;-73
2023/10/26 15:04:50;;;;;;;;;;;;;;;;;;5031433;28;20469;-75
2023/10/26 15:07:17;;;;;;;;;;;;;;;;;;5029994;28;19990;-72
2023/10/26 15:09:43;;;;;;;;;;;;;;;;;;5031348;28;20426;-72
2023/10/26 15:12:09;;;;;;;;;;;;;;;;;;5031366;28;20061;-73
2023/10/26 15:14:35;;;;;;;;;;;;;;;;;;5031736;28;20061;-69
2023/10/26 15:17:02;;;;;;;;;;;;;;;;;;5031180;28;20005;-65
2023/10/26 15:19:27;;;;;;;;;;;;;;;;;;5031459;28;20017;-70
2023/10/26 15:21:53;;;;;;;;;;;;;;;;;;5031433;28;19998;-72
2023/10/26 15:24:19;;;;;;;;;;;;;;;;;;5031549;28;20500;-73
2023/10/26 15:27:59;;;;;;;;;;;;;;;;;;5130290;27;19989;-74
2023/10/26 15:30:24;;;;;;;;;;;;;;;;;;5129914;28;19988;-78
2023/10/26 15:32:50;;;;;;;;;;;;;;;;;;5139898;27;20000;-85
2023/10/26 15:35:16;;;;;;;;;;;;;;;;;;5143245;27;20025;-74
2023/10/26 15:37:42;;;;;;;;;;;;;;;;;;5152660;27;20464;-68
2023/10/26 15:40:08;;;;;;;;;;;;;;;;;;5154399;27;20055;-66
2023/10/26 15:42:34;;;;;;;;;;;;;;;;;;5157401;27;19995;-66
2023/10/26 15:45:00;;;;;;;;;;;;;;;;;;5150273;27;19985;-64
2023/10/26 15:47:26;;;;;;;;;;;;;;;;;;5150229;27;20384;-63
2023/10/26 15:49:52;;;;;;;;;;;;;;;;;;5135767;27;19984;-64
2023/10/26 15:52:18;;;;;;;;;;;;;;;;;;5147406;27;20017;-74
2023/10/26 15:54:44;;;;;;;;;;;;;;;;;;5138787;27;19985;-66
2023/10/26 15:57:10;;;;;;;;;;;;;;;;;;5147183;27;20012;-70
2023/10/26 15:59:36;;;;;;;;;;;;;;;;;;5148908;27;19988;-69
2023/10/26 16:02:02;;;;;;;;;;;;;;;;;;5147386;27;20467;-68
2023/10/26 16:04:31;;;;;;;;;;;;;;;;;;5147744;27;20027;-69
2023/10/26 16:06:57;;;;;;;;;;;;;;;;;;5148140;27;20023;-68
2023/10/26 16:09:23;;;;;;;;;;;;;;;;;;5146869;27;20016;-66
2023/10/26 16:11:49;;;;;;;;;;;;;;;;;;5133080;27;20091;-71
2023/10/26 16:14:15;;;;;;;;;;;;;;;;;;5135139;27;20084;-69
2023/10/26 16:16:41;;;;;;;;;;;;;;;;;;5136419;27;20107;-68
2023/10/26 16:19:09;;;;;;;;;;;;;;;;;;5148473;27;20041;-71
2023/10/26 16:21:35;;;;;;;;;;;;;;;;;;5149585;27;20493;-68
2023/10/26 16:24:01;;;;;;;;;;;;;;;;;;5149494;27;19980;-68
2023/10/26 16:26:27;;;;;;;;;;;;;;;;;;5142355;27;20023;-68
2023/10/26 16:28:53;;;;;;;;;;;;;;;;;;5147560;27;19985;-70
2023/10/26 16:31:19;;;;;;;;;;;;;;;;;;5140401;27;20046;-71
2023/10/26 16:33:45;;;;;;;;;;;;;;;;;;5143129;27;20011;-69
2023/10/26 16:36:10;;;;;;;;;;;;;;;;;;5127959;28;20075;-70
2023/10/26 16:38:36;;;;;;;;;;;;;;;;;;5118386;27;19988;-71